createdAt,value
2023-02-11T02:13:32.439Z,101615.23
2023-02-11T02:17:18.432Z,101621.52
2023-02-11T02:21:14.452Z,101620.42
2023-02-11T02:25:02.469Z,101617.55
2023-02-11T02:28:59.473Z,101619.57
2023-02-11T02:48:41.656Z,101610.09
2023-02-11T02:52:41.719Z,101611.38
2023-02-11T02:56:28.688Z,101610.54
2023-02-11T03:00:18.698Z,101611.13
2023-02-11T03:04:23.658Z,101605.02
2023-02-11T03:08:12.708Z,101606.25
2023-02-11T03:12:01.710Z,101604.08
2023-02-11T03:15:50.163Z,101607.54
2023-02-11T03:19:40.704Z,101611.70
2023-02-11T03:27:15.685Z,101610.52
2023-02-11T03:34:40.740Z,101613.61
2023-02-11T03:38:20.705Z,101606.93
2023-02-11T03:42:24.388Z,101595.01
2023-02-11T03:46:28.378Z,101597.56
2023-02-11T03:50:03.775Z,101596.25
2023-02-11T03:54:10.674Z,101596.02
2023-02-11T03:58:27.298Z,101593.27
2023-02-11T04:02:31.404Z,101582.69
2023-02-11T04:06:35.631Z,101581.17
2023-02-11T04:14:25.515Z,101571.85
2023-02-11T04:18:16.763Z,101570.91
2023-02-11T04:22:05.775Z,101576.25
2023-02-11T04:26:08.594Z,101576.95
2023-02-11T04:29:59.702Z,101576.38
2023-02-11T04:33:51.814Z,101575.85
2023-02-11T04:41:22.235Z,101583.47
2023-02-11T04:44:55.419Z,101585.98
2023-02-11T04:48:30.893Z,101582.17
2023-02-11T04:52:07.809Z,101578.91
2023-02-11T04:56:02.782Z,101581.67
2023-02-11T04:59:56.703Z,101575.38
2023-02-11T05:03:59.548Z,101579.16
2023-02-11T05:07:47.467Z,101584.31
2023-02-11T05:11:37.772Z,101574.48
2023-02-11T05:15:26.009Z,101578.75
2023-02-11T05:19:01.832Z,101578.46
2023-02-11T05:22:51.807Z,101570.57
2023-02-11T05:26:55.687Z,101568.77
2023-02-11T05:30:57.455Z,101573.42
2023-02-11T05:50:01.799Z,101561.95
2023-02-11T05:54:04.697Z,101569.44
2023-02-11T06:05:53.862Z,101568.93
2023-02-11T06:09:57.462Z,101567.71
2023-02-11T06:17:51.553Z,101552.70
2023-02-11T06:21:44.206Z,101548.75
2023-02-11T06:29:28.835Z,101552.56
2023-02-11T06:33:16.904Z,101548.29
2023-02-11T06:37:07.845Z,101554.16
2023-02-11T06:40:56.825Z,101556.23
2023-02-11T06:49:01.552Z,101535.23
2023-02-11T06:53:08.013Z,101531.93
2023-02-11T06:57:15.429Z,101527.59
2023-02-11T07:18:35.791Z,101518.64
2023-02-11T07:22:42.654Z,101518.70
2023-02-11T07:27:21.219Z,101515.41
2023-02-11T07:31:57.231Z,101517.61
2023-02-11T07:36:48.888Z,101522.38
2023-02-11T07:41:02.747Z,101519.38
2023-02-11T07:45:37.156Z,101522.66
2023-02-11T07:50:17.672Z,101525.92
2023-02-11T07:55:05.115Z,101524.18
2023-02-11T10:38:29.967Z,101332.48
2023-02-11T10:52:13.922Z,101313.92
2023-02-11T11:23:18.599Z,101286.54
2023-02-11T11:41:22.214Z,101258.90
2023-02-11T12:44:31.973Z,101212.96
2023-02-11T12:53:53.876Z,101199.91
2023-02-11T14:21:58.530Z,101084.95
2023-02-11T15:19:24.353Z,101039.65
2023-02-11T16:16:27.142Z,101006.79
2023-02-11T16:25:29.952Z,101004.75
2023-02-11T16:38:06.232Z,100974.47
2023-02-11T17:09:40.463Z,100932.39
2023-02-11T17:13:33.500Z,100919.38
2023-02-11T17:17:36.723Z,100907.12
2023-02-11T17:21:30.214Z,100907.30
2023-02-11T17:25:27.102Z,100900.38
2023-02-11T17:29:24.681Z,100896.59
2023-02-11T17:33:26.501Z,100886.06
2023-02-11T17:37:28.039Z,100885.86
2023-02-11T17:41:17.909Z,100888.04
2023-02-11T19:00:25.686Z,100763.73
2023-02-11T19:22:38.851Z,100740.60
2023-02-11T19:30:35.758Z,100728.82
